createdAt,value
2023-01-25T00:02:17.500Z,86.20
2023-01-25T00:05:20.205Z,86.08
2023-01-25T00:08:25.697Z,85.42
2023-01-25T00:11:29.902Z,85.14
2023-01-25T00:14:38.887Z,85.01
2023-01-25T00:17:41.687Z,84.76
2023-01-25T00:20:46.818Z,84.89
2023-01-25T00:23:52.454Z,84.82
2023-01-25T00:26:56.499Z,84.82
2023-01-25T00:30:02.313Z,84.94
2023-01-25T00:33:30.228Z,85.03
2023-01-25T00:36:41.305Z,84.96
2023-01-25T00:43:07.988Z,85.29
2023-01-25T00:46:11.203Z,85.58
2023-01-25T00:49:21.277Z,86.41
2023-01-25T00:52:23.939Z,86.99
2023-01-25T00:55:27.475Z,86.99
2023-01-25T00:58:33.697Z,87.13
2023-01-25T01:01:36.751Z,87.17
2023-01-25T01:04:39.524Z,86.93
2023-01-25T01:07:42.299Z,86.58
2023-01-25T01:10:48.006Z,87.08
2023-01-25T01:13:53.296Z,87.31
2023-01-25T01:16:58.015Z,87.08
2023-01-25T01:20:02.529Z,86.94
2023-01-25T01:23:05.261Z,86.71
2023-01-25T01:26:12.362Z,86.47
2023-01-25T01:29:16.445Z,86.35
2023-01-25T01:32:21.518Z,86.57
2023-01-25T01:35:24.276Z,86.35
2023-01-25T01:38:29.255Z,86.68
2023-01-25T01:41:34.770Z,86.60
2023-01-25T01:44:48.176Z,86.90
2023-01-25T01:47:51.084Z,87.15
2023-01-25T01:50:57.856Z,86.85
2023-01-25T01:54:06.844Z,86.63
2023-01-25T01:57:14.443Z,86.83
2023-01-25T02:00:22.234Z,87.13
2023-01-25T02:03:25.581Z,87.34
2023-01-25T02:06:39.125Z,87.58
2023-01-25T02:09:42.531Z,87.56
2023-01-25T02:12:45.667Z,87.29
2023-01-25T02:15:51.814Z,87.42
2023-01-25T02:18:57.667Z,87.21
2023-01-25T02:22:07.635Z,87.10
2023-01-25T02:25:13.584Z,87.43
2023-01-25T02:28:20.555Z,88.01
2023-01-25T02:31:26.268Z,87.90
2023-01-25T02:34:29.007Z,88.09
2023-01-25T02:37:31.744Z,87.90
2023-01-25T02:40:42.024Z,88.15
2023-01-25T02:43:44.948Z,88.10
2023-01-25T02:46:47.933Z,87.77
2023-01-25T02:49:52.481Z,87.37
2023-01-25T02:52:55.321Z,87.51
2023-01-25T02:56:03.038Z,87.91
2023-01-25T02:59:05.876Z,87.94
2023-01-25T03:02:08.635Z,87.77
2023-01-25T03:05:11.764Z,87.62
2023-01-25T03:08:15.004Z,87.94
2023-01-25T03:11:19.042Z,87.82
2023-01-25T03:14:21.789Z,88.21
2023-01-25T03:17:26.191Z,87.38
2023-01-25T03:20:34.916Z,86.55
2023-01-25T03:23:37.731Z,86.46
2023-01-25T03:26:55.757Z,86.29
2023-01-25T03:29:58.508Z,86.34
2023-01-25T03:33:01.192Z,86.49
2023-01-25T03:36:06.144Z,86.77
2023-01-25T03:39:09.198Z,86.86
2023-01-25T03:42:13.304Z,87.89
2023-01-25T03:45:16.020Z,87.44
2023-01-25T03:48:18.755Z,86.54
2023-01-25T03:51:21.453Z,86.96
2023-01-25T03:54:24.374Z,87.52
2023-01-25T03:57:28.451Z,87.99
2023-01-25T04:00:31.159Z,88.19
2023-01-25T04:03:35.199Z,88.02
2023-01-25T04:06:37.895Z,87.69
2023-01-25T04:09:40.643Z,87.06
2023-01-25T04:12:44.713Z,86.99
2023-01-25T04:15:47.505Z,87.13
2023-01-25T04:18:50.275Z,87.14
2023-01-25T04:21:55.088Z,87.62
2023-01-25T04:24:57.951Z,87.60
2023-01-25T04:28:02.088Z,87.74
2023-01-25T04:31:06.192Z,87.51
2023-01-25T04:34:08.887Z,86.70
2023-01-25T04:37:11.678Z,86.37
2023-01-25T04:40:14.429Z,85.49
2023-01-25T04:43:19.423Z,86.13
2023-01-25T04:46:22.173Z,86.98
2023-01-25T04:49:24.877Z,87.04
2023-01-25T04:52:27.737Z,87.13
2023-01-25T04:55:33.352Z,88.35
2023-01-25T04:58:38.034Z,88.44
2023-01-25T05:01:40.805Z,88.62
2023-01-25T05:04:43.624Z,89.05
2023-01-25T05:07:46.331Z,87.93
2023-01-25T05:10:48.994Z,88.03
2023-01-25T05:13:54.656Z,87.15
2023-01-25T05:16:57.362Z,86.15
2023-01-25T05:20:00.137Z,86.71
2023-01-25T05:23:03.240Z,88.35
2023-01-25T05:26:23.929Z,87.91
2023-01-25T05:29:28.560Z,87.79
2023-01-25T05:32:31.275Z,87.78
2023-01-25T05:35:34.018Z,88.00
2023-01-25T05:38:36.665Z,87.58
2023-01-25T05:41:39.396Z,87.31
2023-01-25T05:44:46.115Z,87.58
2023-01-25T05:47:54.098Z,87.59
2023-01-25T05:50:58.618Z,88.14
2023-01-25T05:54:01.302Z,88.51
2023-01-25T05:57:04.110Z,87.96
2023-01-25T06:00:10.288Z,88.26
2023-01-25T06:03:13.104Z,88.38
2023-01-25T06:06:15.879Z,86.40
2023-01-25T06:09:18.535Z,86.29
2023-01-25T06:12:21.598Z,86.17
2023-01-25T06:15:25.951Z,86.30
2023-01-25T06:18:31.652Z,87.09
2023-01-25T06:21:35.193Z,87.02
2023-01-25T06:24:37.936Z,87.69
2023-01-25T06:27:40.608Z,87.85
2023-01-25T06:30:44.671Z,87.33
2023-01-25T06:33:50.256Z,86.85
2023-01-25T06:36:55.199Z,86.67
2023-01-25T06:40:07.453Z,86.53
2023-01-25T06:43:11.710Z,87.12
2023-01-25T06:46:15.795Z,88.34
2023-01-25T06:49:18.447Z,87.71
2023-01-25T06:52:21.116Z,88.29
2023-01-25T06:55:24.072Z,88.11
2023-01-25T06:58:30.854Z,88.01
2023-01-25T07:01:35.272Z,88.11
2023-01-25T07:04:38.104Z,88.05
2023-01-25T07:07:40.750Z,88.52
2023-01-25T07:10:43.607Z,88.05
2023-01-25T07:13:48.010Z,88.20
2023-01-25T07:16:52.106Z,88.31
2023-01-25T07:20:00.117Z,88.55
2023-01-25T07:23:06.877Z,87.50
2023-01-25T07:26:18.619Z,87.75
2023-01-25T07:29:21.749Z,87.88
2023-01-25T07:32:28.940Z,87.79
2023-01-25T07:35:32.396Z,87.27
2023-01-25T07:38:36.373Z,87.41
2023-01-25T07:41:39.474Z,87.71
2023-01-25T07:44:45.406Z,87.95
2023-01-25T07:47:49.447Z,87.89
2023-01-25T07:51:11.825Z,87.59
2023-01-25T07:54:16.878Z,86.96
2023-01-25T07:57:29.423Z,87.09
2023-01-25T08:00:32.103Z,87.24
2023-01-25T08:03:36.565Z,86.86
2023-01-25T08:06:39.879Z,87.08
2023-01-25T08:09:43.063Z,86.46
2023-01-25T08:12:47.206Z,86.61
2023-01-25T08:15:56.785Z,85.90
2023-01-25T08:19:03.156Z,86.14
2023-01-25T08:22:08.256Z,86.77
2023-01-25T08:25:11.514Z,86.95
2023-01-25T08:28:14.312Z,87.23
2023-01-25T08:31:21.744Z,87.67
2023-01-25T08:34:32.368Z,87.28
2023-01-25T08:37:35.063Z,87.29
2023-01-25T08:40:38.610Z,87.33
2023-01-25T08:43:41.484Z,87.40
2023-01-25T08:46:45.006Z,87.00
2023-01-25T08:49:49.029Z,86.70
2023-01-25T08:52:52.776Z,86.41
2023-01-25T08:55:57.824Z,87.07
2023-01-25T08:59:02.224Z,87.21
2023-01-25T09:02:04.890Z,86.96
2023-01-25T09:05:09.808Z,86.96
2023-01-25T09:08:12.631Z,86.84
2023-01-25T09:11:17.889Z,86.27
2023-01-25T09:14:20.549Z,86.01
2023-01-25T09:17:41.687Z,86.06
2023-01-25T09:20:45.761Z,85.71
2023-01-25T09:24:09.104Z,86.01
2023-01-25T09:27:12.338Z,86.49
2023-01-25T09:30:18.696Z,85.93
2023-01-25T09:33:21.986Z,85.92
2023-01-25T09:36:26.174Z,85.87
2023-01-25T09:39:28.885Z,84.53
2023-01-25T09:42:45.820Z,84.61
2023-01-25T09:45:51.183Z,84.33
2023-01-25T09:49:08.100Z,84.58
2023-01-25T09:52:35.300Z,83.39
2023-01-25T09:55:53.059Z,84.81
2023-01-25T09:58:59.531Z,85.22
2023-01-25T10:02:06.327Z,84.05
2023-01-25T10:05:16.745Z,83.99
2023-01-25T10:08:28.217Z,83.78
2023-01-25T10:11:32.977Z,84.76
2023-01-25T10:14:35.747Z,85.34
2023-01-25T10:17:55.424Z,85.24
2023-01-25T10:21:01.369Z,85.21
2023-01-25T10:24:33.642Z,85.46
2023-01-25T10:27:55.566Z,83.99
2023-01-25T10:31:02.061Z,84.44
2023-01-25T10:34:18.402Z,85.02
2023-01-25T10:37:26.131Z,85.45
2023-01-25T10:40:36.526Z,85.93
2023-01-25T10:43:40.220Z,86.39
2023-01-25T10:46:51.142Z,85.54
2023-01-25T10:49:56.851Z,85.62
2023-01-25T10:53:07.426Z,85.27
2023-01-25T10:56:31.246Z,84.55
2023-01-25T10:59:37.712Z,84.32
2023-01-25T11:02:46.489Z,83.28
2023-01-25T11:05:54.714Z,84.50
2023-01-25T11:08:58.892Z,84.76
2023-01-25T11:12:04.758Z,84.11
2023-01-25T11:15:26.681Z,84.22
2023-01-25T11:18:33.786Z,82.75
2023-01-25T11:21:36.581Z,82.52
2023-01-25T11:24:42.864Z,82.63
2023-01-25T11:27:46.845Z,82.95
2023-01-25T11:30:50.936Z,82.73
2023-01-25T11:33:55.659Z,82.35
2023-01-25T11:37:29.781Z,82.28
2023-01-25T11:40:48.422Z,82.35
2023-01-25T11:44:21.742Z,82.99
2023-01-25T11:47:43.346Z,82.74
2023-01-25T11:50:50.298Z,84.07
2023-01-25T11:54:13.911Z,84.29
2023-01-25T11:57:55.551Z,83.99
2023-01-25T12:01:12.923Z,84.35
2023-01-25T12:04:41.961Z,83.64
2023-01-25T12:08:05.725Z,83.07
2023-01-25T12:11:17.395Z,82.82
2023-01-25T12:14:37.287Z,83.33
2023-01-25T12:17:58.093Z,83.28
2023-01-25T12:21:13.380Z,82.49
2023-01-25T12:24:36.532Z,82.43
2023-01-25T12:27:52.042Z,81.33
2023-01-25T12:30:59.800Z,81.53
2023-01-25T12:34:08.590Z,82.13
2023-01-25T12:37:17.824Z,81.90
2023-01-25T12:40:41.957Z,82.06
2023-01-25T12:44:05.064Z,81.95
2023-01-25T12:47:15.902Z,81.05
2023-01-25T12:50:30.464Z,80.69
2023-01-25T12:53:39.341Z,81.74
2023-01-25T12:56:48.131Z,81.48
2023-01-25T13:00:09.710Z,81.18
2023-01-25T13:03:28.368Z,81.42
2023-01-25T13:06:43.223Z,81.42
2023-01-25T13:10:04.635Z,81.77
2023-01-25T13:13:23.632Z,82.46
2023-01-25T13:16:43.247Z,81.96
2023-01-25T13:19:45.924Z,82.36
2023-01-25T13:22:59.534Z,82.58
2023-01-25T13:26:38.445Z,82.53
2023-01-25T13:29:47.113Z,82.93
2023-01-25T13:33:02.162Z,82.60
2023-01-25T13:36:38.434Z,82.88
2023-01-25T13:39:45.113Z,83.48
2023-01-25T13:43:00.528Z,82.66
2023-01-25T13:46:07.598Z,83.33
2023-01-25T13:49:22.095Z,83.24
2023-01-25T13:52:26.979Z,83.57
2023-01-25T13:55:39.582Z,83.37
2023-01-25T13:58:48.140Z,83.08
2023-01-25T14:01:54.785Z,83.03
2023-01-25T14:04:59.197Z,82.99
2023-01-25T14:08:02.167Z,82.79
2023-01-25T14:11:09.194Z,82.92
2023-01-25T14:14:21.877Z,82.80
2023-01-25T14:17:24.874Z,82.80
2023-01-25T14:20:27.798Z,82.51
2023-01-25T14:23:32.612Z,81.43
2023-01-25T14:26:41.955Z,81.85
2023-01-25T14:29:49.346Z,81.63
2023-01-25T14:32:54.835Z,81.38
2023-01-25T14:36:24.171Z,80.88
2023-01-25T14:39:30.526Z,81.71
2023-01-25T14:42:34.961Z,82.18
2023-01-25T14:45:38.842Z,82.27
2023-01-25T14:48:45.430Z,82.44
2023-01-25T14:51:50.426Z,82.15
2023-01-25T14:54:56.057Z,82.56
2023-01-25T14:58:02.555Z,82.45
2023-01-25T15:01:05.771Z,82.49
2023-01-25T15:04:14.555Z,82.34
2023-01-25T15:07:34.376Z,81.74
2023-01-25T15:10:38.248Z,82.20
2023-01-25T15:13:42.343Z,80.58
2023-01-25T15:16:45.373Z,81.35
2023-01-25T15:19:53.798Z,80.63
2023-01-25T15:22:58.811Z,81.19
2023-01-25T15:26:03.796Z,81.57
2023-01-25T15:29:14.750Z,81.23
2023-01-25T15:32:21.406Z,80.52
2023-01-25T15:35:24.186Z,80.13
2023-01-25T15:38:37.580Z,81.15
2023-01-25T15:41:40.962Z,81.85
2023-01-25T15:44:45.005Z,81.96
2023-01-25T15:47:47.841Z,80.54
2023-01-25T15:50:55.475Z,80.54
2023-01-25T15:53:58.180Z,80.73
2023-01-25T15:57:01.442Z,81.56
2023-01-25T16:00:06.742Z,82.35
2023-01-25T16:03:09.477Z,82.14
2023-01-25T16:06:26.035Z,82.43
2023-01-25T16:09:33.203Z,82.33
2023-01-25T16:12:36.595Z,82.50
2023-01-25T16:15:42.180Z,82.28
2023-01-25T16:18:45.008Z,81.78
2023-01-25T16:21:47.787Z,82.13
2023-01-25T16:24:50.458Z,81.27
2023-01-25T16:27:55.028Z,81.29
2023-01-25T16:31:01.694Z,81.12
2023-01-25T16:34:04.571Z,80.66
2023-01-25T16:37:07.245Z,80.29
2023-01-25T16:40:24.746Z,80.53
2023-01-25T16:43:42.104Z,80.32
2023-01-25T16:46:48.950Z,80.43
2023-01-25T16:49:51.653Z,80.29
2023-01-25T16:52:57.276Z,80.79
2023-01-25T16:56:00.176Z,81.04
2023-01-25T16:59:07.156Z,81.22
2023-01-25T17:02:13.577Z,81.33
2023-01-25T17:05:16.437Z,81.35
2023-01-25T17:08:19.098Z,81.23
2023-01-25T17:11:22.752Z,81.56
2023-01-25T17:14:25.448Z,81.54
2023-01-25T17:17:31.108Z,81.28
2023-01-25T17:20:34.093Z,81.31
2023-01-25T17:23:38.145Z,81.10
2023-01-25T17:26:41.325Z,81.33
2023-01-25T17:29:44.049Z,81.14
2023-01-25T17:32:48.292Z,80.99
2023-01-25T17:35:51.158Z,80.99
2023-01-25T17:38:54.056Z,80.86
2023-01-25T17:41:56.749Z,81.17
2023-01-25T17:44:59.456Z,81.17
2023-01-25T17:48:03.517Z,80.88
2023-01-25T17:51:06.709Z,80.82
2023-01-25T17:54:10.766Z,80.50
2023-01-25T17:57:13.439Z,80.44
2023-01-25T18:00:17.658Z,80.26
2023-01-25T18:03:21.701Z,80.15
2023-01-25T18:06:26.517Z,80.21
2023-01-25T18:09:31.671Z,80.10
2023-01-25T18:12:34.636Z,80.28
2023-01-25T18:15:37.322Z,80.16
2023-01-25T18:18:43.503Z,80.24
2023-01-25T18:21:46.593Z,80.41
2023-01-25T18:24:49.348Z,80.26
2023-01-25T18:27:51.994Z,79.77
2023-01-25T18:30:59.577Z,79.44
2023-01-25T18:34:05.075Z,80.13
2023-01-25T18:37:20.313Z,80.08
2023-01-25T18:40:25.705Z,80.20
2023-01-25T18:43:31.234Z,80.09
2023-01-25T18:46:33.997Z,80.28
2023-01-25T18:49:38.053Z,80.08
2023-01-25T18:52:40.880Z,80.10
2023-01-25T18:55:43.626Z,80.37
2023-01-25T18:58:47.065Z,79.93
2023-01-25T19:01:57.222Z,80.31
2023-01-25T19:05:03.695Z,80.71
2023-01-25T19:08:06.661Z,80.71
2023-01-25T19:11:12.008Z,80.52
2023-01-25T19:14:14.761Z,79.97
2023-01-25T19:17:19.862Z,80.07
2023-01-25T19:20:30.204Z,80.21
2023-01-25T19:23:34.282Z,80.17
2023-01-25T19:26:37.059Z,80.14
2023-01-25T19:29:42.401Z,80.48
2023-01-25T19:32:45.195Z,80.53
2023-01-25T19:35:49.748Z,80.28
2023-01-25T19:38:52.631Z,80.22
2023-01-25T19:41:55.582Z,80.35
2023-01-25T19:45:12.331Z,79.98
2023-01-25T19:48:17.493Z,79.94
2023-01-25T19:51:23.277Z,80.36
2023-01-25T19:54:28.177Z,80.31
2023-01-25T19:57:33.998Z,80.37
2023-01-25T20:00:36.791Z,80.18
2023-01-25T20:03:46.416Z,79.79
2023-01-25T20:06:51.733Z,78.97
2023-01-25T20:09:54.568Z,77.99
2023-01-25T20:13:00.541Z,78.35
2023-01-25T20:16:03.832Z,78.35
2023-01-25T20:19:08.133Z,78.47
2023-01-25T20:22:12.581Z,77.69
2023-01-25T20:25:16.395Z,77.88
2023-01-25T20:28:19.231Z,78.49
2023-01-25T20:31:25.873Z,78.38
2023-01-25T20:34:28.712Z,77.81
2023-01-25T20:37:32.840Z,77.94
2023-01-25T20:40:35.512Z,78.23
2023-01-25T20:43:38.564Z,78.44
2023-01-25T20:46:42.897Z,78.86
2023-01-25T20:49:45.681Z,79.17
2023-01-25T20:52:53.259Z,78.98
2023-01-25T20:55:56.777Z,78.30
2023-01-25T20:58:59.585Z,78.74
2023-01-25T21:02:02.612Z,79.19
2023-01-25T21:05:09.580Z,79.27
2023-01-25T21:08:14.316Z,79.05
2023-01-25T21:11:17.459Z,79.11
2023-01-25T21:14:20.252Z,78.97
2023-01-25T21:17:26.124Z,78.64
2023-01-25T21:20:36.774Z,78.81
2023-01-25T21:23:48.613Z,78.84
2023-01-25T21:26:51.409Z,78.75
2023-01-25T21:29:54.123Z,78.86
2023-01-25T21:33:21.983Z,78.83
2023-01-25T21:36:24.894Z,78.79
2023-01-25T21:39:29.009Z,78.37
2023-01-25T21:42:32.503Z,77.98
2023-01-25T21:45:56.349Z,78.29
2023-01-25T21:49:18.100Z,78.44
2023-01-25T21:52:21.017Z,78.83
2023-01-25T21:55:25.185Z,79.26
2023-01-25T21:58:28.002Z,78.85
2023-01-25T22:01:30.783Z,78.49
2023-01-25T22:04:36.373Z,77.79
2023-01-25T22:07:42.697Z,77.67
2023-01-25T22:10:46.732Z,77.33
2023-01-25T22:13:49.444Z,78.32
2023-01-25T22:16:52.618Z,77.46
2023-01-25T22:19:56.286Z,78.50
2023-01-25T22:23:02.088Z,77.50
2023-01-25T22:26:11.193Z,78.10
2023-01-25T22:29:15.000Z,78.92
2023-01-25T22:32:19.306Z,78.29
2023-01-25T22:35:21.991Z,78.48
2023-01-25T22:38:24.805Z,78.52
2023-01-25T22:41:32.929Z,78.59
2023-01-25T22:44:36.300Z,78.75
2023-01-25T22:47:38.993Z,79.15
2023-01-25T22:50:41.683Z,78.94
2023-01-25T22:53:47.947Z,79.42
2023-01-25T22:56:55.657Z,79.29
2023-01-25T22:59:58.309Z,79.14
2023-01-25T23:03:01.079Z,79.46
2023-01-25T23:06:05.579Z,79.45
2023-01-25T23:09:08.482Z,79.58
2023-01-25T23:12:12.495Z,79.52
2023-01-25T23:15:16.363Z,79.33
2023-01-25T23:18:36.587Z,79.11
2023-01-25T23:21:42.423Z,79.12
2023-01-25T23:24:45.108Z,79.16
2023-01-25T23:27:49.308Z,79.25
2023-01-25T23:31:11.088Z,79.21
2023-01-25T23:34:14.850Z,78.79
2023-01-25T23:37:17.531Z,79.02
2023-01-25T23:40:23.721Z,78.85
2023-01-25T23:43:30.259Z,78.56
2023-01-25T23:46:36.659Z,79.07
2023-01-25T23:49:44.624Z,78.80
2023-01-25T23:52:47.290Z,78.83
2023-01-25T23:55:53.998Z,78.92
2023-01-25T23:58:58.481Z,78.58
